Time;durP1;ratioP1;P1;durP2;ratioP2;P2;SDS_P1;SDS_P2;PMS_P1;PMS_P2;Temp;Humidity;BMP_temperature;BMP_pressure;BME280_temperature;BME280_humidity;BME280_pressure;Samples;Min_cycle;Max_cycle;Signal;HPM_P1;HPM_P2
2022/04/17 00:00:55;;;;;;;10.57;5.72;;;14.90;56.90;;;;;;4993779;28;20034;-62
2022/04/17 00:03:23;;;;;;;7.22;5.68;;;14.90;56.90;;;;;;4993381;28;20050;-62
2022/04/17 00:05:50;;;;;;;7.85;5.03;;;14.90;56.80;;;;;;4993814;28;20030;-62
2022/04/17 00:08:16;;;;;;;9.57;5.07;;;14.80;56.70;;;;;;4993937;28;20391;-53
2022/04/17 00:10:41;;;;;;;10.65;5.75;;;14.80;56.70;;;;;;4993454;28;20027;-61
2022/04/17 00:13:07;;;;;;;5.85;5.25;;;14.80;56.90;;;;;;4993807;28;20038;-62
2022/04/17 00:15:33;;;;;;;6.05;5.45;;;14.80;56.70;;;;;;4994039;28;20057;-62
2022/04/17 00:17:58;;;;;;;7.13;5.25;;;14.80;56.70;;;;;;4993873;28;20101;-61
2022/04/17 00:20:24;;;;;;;5.53;4.93;;;14.80;56.80;;;;;;4993370;28;20492;-61
2022/04/17 00:22:50;;;;;;;9.40;5.22;;;14.80;56.70;;;;;;4993746;28;20030;-59
2022/04/17 00:25:16;;;;;;;11.27;5.00;;;14.80;56.60;;;;;;4993525;28;20042;-62
2022/04/17 00:27:42;;;;;;;5.65;4.60;;;14.70;56.70;;;;;;4993629;28;20022;-62
2022/04/17 00:30:09;;;;;;;6.25;4.50;;;14.70;56.60;;;;;;4993195;28;20038;-58
2022/04/17 00:32:36;;;;;;;7.78;4.95;;;14.70;56.50;;;;;;4993411;28;20554;-62
2022/04/17 00:35:04;;;;;;;8.30;4.70;;;14.70;56.50;;;;;;4993864;28;20053;-62
2022/04/17 00:37:29;;;;;;;5.68;4.82;;;14.60;56.60;;;;;;4993736;28;20022;-62
2022/04/17 00:39:55;;;;;;;6.03;4.78;;;14.60;56.50;;;;;;4992905;28;20026;-62
2022/04/17 00:42:20;;;;;;;7.63;4.85;;;14.60;56.60;;;;;;4995725;28;20097;-62
2022/04/17 00:44:46;;;;;;;6.97;4.75;;;14.60;56.60;;;;;;4997615;28;20535;-59
2022/04/17 00:47:15;;;;;;;7.82;4.90;;;14.60;56.50;;;;;;4997680;28;20049;-58
2022/04/17 00:49:43;;;;;;;6.65;4.60;;;14.60;56.50;;;;;;4996925;28;20037;-62
2022/04/17 00:52:08;;;;;;;6.30;4.53;;;14.60;56.60;;;;;;4997477;28;20092;-61
2022/04/17 00:54:38;;;;;;;7.80;4.50;;;14.60;56.50;;;;;;4997095;28;20022;-62
2022/04/17 00:57:06;;;;;;;5.88;4.63;;;14.50;56.60;;;;;;4997669;28;20034;-62
2022/04/17 00:59:32;;;;;;;5.20;4.32;;;14.50;56.50;;;;;;4997028;28;20022;-55
2022/04/17 01:01:58;;;;;;;5.50;4.00;;;14.50;56.60;;;;;;4997599;28;20035;-61
2022/04/17 01:04:23;;;;;;;9.25;4.65;;;14.50;56.50;;;;;;4996954;28;20030;-54
2022/04/17 01:06:49;;;;;;;7.13;4.40;;;14.40;56.50;;;;;;4997303;28;20034;-61
2022/04/17 01:09:15;;;;;;;6.63;5.10;;;14.50;56.50;;;;;;4997006;28;20157;-62
2022/04/17 01:11:41;;;;;;;7.07;4.68;;;14.40;56.50;;;;;;4996664;28;20026;-62
2022/04/17 01:14:08;;;;;;;7.28;4.38;;;14.40;56.50;;;;;;4996813;28;20021;-62
2022/04/17 01:16:36;;;;;;;4.38;3.92;;;14.40;56.60;;;;;;4997153;28;20026;-62
2022/04/17 01:19:11;;;;;;;6.25;4.68;;;14.40;56.40;;;;;;4997026;28;20030;-61
2022/04/17 01:21:37;;;;;;;6.50;4.65;;;14.30;56.50;;;;;;4996826;28;20476;-61
2022/04/17 01:26:57;;;;;;;5.95;4.65;;;14.30;56.50;;;;;;4997021;28;20509;-61
2022/04/17 01:29:31;;;;;;;5.18;4.55;;;14.30;56.40;;;;;;4996990;28;20395;-62
2022/04/17 01:31:58;;;;;;;7.85;4.55;;;14.20;56.50;;;;;;4995807;28;20041;-62
2022/04/17 01:34:24;;;;;;;6.80;4.32;;;14.20;56.40;;;;;;4996446;28;20169;-58
2022/04/17 01:36:50;;;;;;;5.95;4.30;;;14.20;56.30;;;;;;4996838;28;20515;-62
2022/04/17 01:39:17;;;;;;;4.88;4.47;;;14.20;56.40;;;;;;4996314;28;20157;-62
2022/04/17 01:41:43;;;;;;;6.40;4.32;;;14.20;56.40;;;;;;4996417;28;20068;-61
2022/04/17 01:44:09;;;;;;;8.52;4.32;;;14.10;56.30;;;;;;4979331;28;20538;-62
2022/04/17 01:46:34;;;;;;;5.45;4.65;;;14.20;56.40;;;;;;4996556;28;20038;-61
2022/04/17 01:49:01;;;;;;;5.53;4.50;;;14.10;56.30;;;;;;4996307;28;20031;-62
2022/04/17 01:51:26;;;;;;;5.47;4.60;;;14.10;56.40;;;;;;4996096;28;20030;-61
2022/04/17 01:53:52;;;;;;;7.57;4.57;;;14.00;56.40;;;;;;4994833;28;20030;-62
2022/04/17 01:56:18;;;;;;;7.22;4.32;;;14.00;56.40;;;;;;4996501;28;20031;-62
2022/04/17 01:58:44;;;;;;;8.20;4.30;;;14.00;56.30;;;;;;4996420;28;20030;-59
2022/04/17 02:01:09;;;;;;;7.32;5.03;;;14.00;56.20;;;;;;4995991;28;20038;-62
2022/04/17 02:03:35;;;;;;;6.93;4.03;;;14.00;56.20;;;;;;4996159;28;20058;-61
2022/04/17 02:06:00;;;;;;;7.90;4.45;;;14.00;56.20;;;;;;4996036;28;20034;-55
2022/04/17 02:08:28;;;;;;;7.00;4.30;;;13.90;56.30;;;;;;4996030;28;20480;-62
2022/04/17 02:10:54;;;;;;;6.78;4.35;;;14.00;56.30;;;;;;4996268;28;20033;-62
2022/04/17 02:13:19;;;;;;;4.25;3.80;;;13.90;56.30;;;;;;4995824;28;20026;-61
2022/04/17 02:15:45;;;;;;;5.25;4.13;;;13.90;56.40;;;;;;4995996;28;20089;-58
2022/04/17 02:18:12;;;;;;;6.10;4.35;;;13.80;56.50;;;;;;4996034;28;20030;-59
2022/04/17 02:20:37;;;;;;;6.55;4.38;;;13.80;56.50;;;;;;4995924;28;20507;-62
2022/04/17 02:23:03;;;;;;;7.40;4.05;;;13.90;56.50;;;;;;4995308;28;20027;-60
2022/04/17 02:25:28;;;;;;;5.30;4.38;;;13.80;56.40;;;;;;4995290;28;20041;-62
2022/04/17 02:27:54;;;;;;;6.22;4.35;;;13.80;56.60;;;;;;4995727;28;20022;-62
2022/04/17 02:30:19;;;;;;;6.00;4.88;;;13.80;56.50;;;;;;4995740;28;20023;-62
2022/04/17 02:32:46;;;;;;;5.80;4.75;;;13.70;56.40;;;;;;4992665;28;20041;-61
2022/04/17 02:35:11;;;;;;;7.65;4.75;;;13.70;56.60;;;;;;4987438;28;20038;-56
2022/04/17 02:37:37;;;;;;;8.90;4.00;;;13.70;56.60;;;;;;4975952;28;20035;-61
2022/04/17 02:40:03;;;;;;;6.03;4.18;;;13.70;56.60;;;;;;4976063;28;20122;-62
2022/04/17 02:42:28;;;;;;;5.32;3.75;;;13.70;56.60;;;;;;4976195;28;20503;-58
2022/04/17 02:44:54;;;;;;;5.13;3.90;;;13.70;56.70;;;;;;4995299;28;20420;-62
2022/04/17 02:50:04;;;;;;;5.82;4.43;;;13.60;56.60;;;;;;4994908;28;20085;-55
2022/04/17 02:52:30;;;;;;;6.30;4.78;;;13.60;56.60;;;;;;4995226;28;20022;-58
2022/04/17 02:54:55;;;;;;;6.50;4.13;;;13.60;56.70;;;;;;4995363;28;20451;-54
2022/04/17 02:57:21;;;;;;;5.68;4.50;;;13.50;56.60;;;;;;4995229;28;20034;-62
2022/04/17 02:59:46;;;;;;;6.03;4.10;;;13.50;56.70;;;;;;4995011;28;20460;-62
2022/04/17 03:07:40;;;;;;;6.30;4.60;;;13.40;56.70;;;;;;4995406;28;20049;-60
2022/04/17 03:10:06;;;;;;;7.53;4.00;;;13.40;56.70;;;;;;4995033;28;20014;-59
2022/04/17 03:12:31;;;;;;;6.22;4.18;;;13.40;56.80;;;;;;4994653;28;20041;-55
2022/04/17 03:14:57;;;;;;;4.57;3.90;;;13.40;56.80;;;;;;4994936;28;20022;-62
2022/04/17 03:17:22;;;;;;;5.57;4.32;;;13.30;56.90;;;;;;4994924;28;20026;-62
2022/04/17 03:19:48;;;;;;;5.88;3.92;;;13.30;56.90;;;;;;4994729;28;20113;-62
2022/04/17 03:22:14;;;;;;;5.15;4.60;;;13.30;57.10;;;;;;4994487;28;20030;-62
2022/04/17 03:24:40;;;;;;;4.18;3.67;;;13.30;57.00;;;;;;4995018;28;20032;-58
2022/04/17 03:27:06;;;;;;;4.30;3.60;;;13.30;56.80;;;;;;4994245;28;20117;-62
2022/04/17 03:29:31;;;;;;;6.80;3.95;;;13.30;56.80;;;;;;4994858;28;20033;-55
2022/04/17 03:31:57;;;;;;;4.78;3.67;;;13.30;56.80;;;;;;4993762;28;20037;-61
2022/04/17 03:34:22;;;;;;;5.80;4.15;;;13.30;56.90;;;;;;4994387;28;20061;-62
2022/04/17 03:36:48;;;;;;;6.90;3.78;;;13.20;56.90;;;;;;4994511;28;20030;-61
2022/04/17 03:39:14;;;;;;;6.82;4.05;;;13.20;57.00;;;;;;4994460;28;20023;-61
2022/04/17 03:41:39;;;;;;;5.10;3.97;;;13.20;57.00;;;;;;4994022;28;20398;-62
2022/04/17 03:44:05;;;;;;;6.65;3.92;;;13.20;56.90;;;;;;4994391;28;20181;-60
2022/04/17 03:46:31;;;;;;;4.97;3.80;;;13.20;57.00;;;;;;4994266;28;20054;-54
2022/04/17 03:48:57;;;;;;;6.95;3.72;;;13.10;56.90;;;;;;4993832;28;20454;-57
2022/04/17 03:51:23;;;;;;;6.95;3.70;;;13.10;56.90;;;;;;4993994;28;20435;-62
2022/04/17 03:53:49;;;;;;;5.80;3.97;;;13.10;57.10;;;;;;4994599;28;20022;-62
2022/04/17 03:56:14;;;;;;;17.63;4.60;;;13.00;57.10;;;;;;4994220;28;20042;-61
2022/04/17 03:58:40;;;;;;;4.65;3.60;;;13.00;57.30;;;;;;4994190;28;20022;-62
2022/04/17 04:01:05;;;;;;;5.28;3.95;;;13.10;57.50;;;;;;4993419;28;20026;-54
2022/04/17 04:03:32;;;;;;;5.18;4.07;;;13.00;57.20;;;;;;4993992;28;20491;-61
2022/04/17 04:05:58;;;;;;;5.75;3.78;;;13.00;57.00;;;;;;4993874;28;20113;-62
2022/04/17 04:08:23;;;;;;;5.63;4.05;;;13.00;57.00;;;;;;4993956;28;20106;-60
2022/04/17 04:10:49;;;;;;;4.75;3.75;;;13.00;57.10;;;;;;4994195;28;20030;-61
2022/04/17 04:13:15;;;;;;;5.40;3.53;;;12.90;57.20;;;;;;4993719;28;20527;-61
2022/04/17 04:15:41;;;;;;;6.82;3.92;;;12.90;57.20;;;;;;4993891;28;20018;-57
2022/04/17 04:18:06;;;;;;;7.82;4.40;;;12.90;57.20;;;;;;4992747;28;20403;-61
2022/04/17 04:20:32;;;;;;;8.18;4.18;;;12.90;57.20;;;;;;4993957;28;20038;-61
2022/04/17 04:22:57;;;;;;;3.88;3.35;;;12.90;57.00;;;;;;4993630;28;20105;-60
2022/04/17 04:25:23;;;;;;;6.07;4.13;;;12.80;57.00;;;;;;4993870;28;20029;-62
2022/04/17 04:30:33;;;;;;;4.95;3.63;;;12.80;57.00;;;;;;4994075;28;20029;-61
2022/04/17 04:32:59;;;;;;;6.38;3.35;;;12.80;56.80;;;;;;4993383;28;20026;-61
2022/04/17 04:35:29;;;;;;;6.85;3.92;;;12.70;57.00;;;;;;4993935;28;20094;-62
2022/04/17 04:38:00;;;;;;;5.75;2.92;;;12.70;57.00;;;;;;4993073;28;20038;-62
2022/04/17 04:40:26;;;;;;;6.45;4.20;;;12.70;57.00;;;;;;4993721;28;20027;-61
2022/04/17 04:43:02;;;;;;;5.53;3.38;;;12.70;56.90;;;;;;4993586;28;20077;-61
2022/04/17 04:48:13;;;;;;;5.82;3.72;;;12.60;57.00;;;;;;4993338;28;20222;-62
2022/04/17 04:50:38;;;;;;;5.15;3.72;;;12.60;57.00;;;;;;4993647;28;20468;-61
2022/04/17 04:53:04;;;;;;;4.03;3.33;;;12.60;57.10;;;;;;4993738;28;20105;-61
2022/04/17 04:55:29;;;;;;;4.72;3.50;;;12.60;57.00;;;;;;4993504;28;20026;-62
2022/04/17 04:57:55;;;;;;;4.82;3.33;;;12.50;56.70;;;;;;4993446;28;20030;-59
2022/04/17 05:00:21;;;;;;;4.85;3.30;;;12.50;56.80;;;;;;4991554;28;20049;-62
2022/04/17 05:02:47;;;;;;;3.95;3.42;;;12.50;56.80;;;;;;4988658;28;20065;-61
2022/04/17 05:05:13;;;;;;;4.57;3.58;;;12.50;56.70;;;;;;4975008;28;20027;-58
2022/04/17 05:07:39;;;;;;;4.82;2.83;;;12.50;56.80;;;;;;4991263;28;20089;-62
2022/04/17 05:10:06;;;;;;;3.35;2.70;;;12.50;57.30;;;;;;4992684;28;20164;-55
2022/04/17 05:12:33;;;;;;;4.82;2.90;;;12.40;56.80;;;;;;4993248;28;20121;-55
2022/04/17 05:14:59;;;;;;;6.97;3.85;;;12.40;56.80;;;;;;4992443;28;20034;-60
2022/04/17 05:17:25;;;;;;;4.82;3.75;;;12.40;56.70;;;;;;4993416;28;20042;-61
2022/04/17 05:19:50;;;;;;;4.97;3.10;;;12.40;56.70;;;;;;4993215;28;20042;-62
2022/04/17 05:22:17;;;;;;;4.93;2.70;;;12.40;56.80;;;;;;4992961;28;20464;-62
2022/04/17 05:24:46;;;;;;;5.18;3.10;;;12.40;56.90;;;;;;4993475;28;20033;-56
2022/04/17 05:27:12;;;;;;;5.40;3.20;;;12.40;56.80;;;;;;4993371;28;20038;-56
2022/04/17 05:29:39;;;;;;;3.95;2.65;;;12.40;57.00;;;;;;4996545;28;20022;-61
2022/04/17 05:32:05;;;;;;;3.75;2.92;;;12.40;56.90;;;;;;4996570;28;20039;-60
2022/04/17 05:34:31;;;;;;;4.22;2.78;;;12.40;56.80;;;;;;4996500;28;20036;-61
2022/04/17 05:36:56;;;;;;;5.65;3.08;;;12.40;56.90;;;;;;4996781;28;20442;-58
2022/04/17 05:39:22;;;;;;;3.42;3.05;;;12.40;57.10;;;;;;4996774;28;20037;-61
2022/04/17 05:41:48;;;;;;;7.75;3.13;;;12.30;57.30;;;;;;4996503;28;20027;-62
2022/04/17 05:44:14;;;;;;;4.80;3.08;;;12.40;57.00;;;;;;4996180;28;20026;-54
2022/04/17 05:46:41;;;;;;;4.40;2.88;;;12.30;56.80;;;;;;4996835;28;20122;-61
2022/04/17 05:49:07;;;;;;;8.25;2.70;;;12.30;57.10;;;;;;4996369;28;20034;-54
2022/04/17 05:51:34;;;;;;;4.45;2.90;;;12.30;57.30;;;;;;4996561;28;20022;-55
2022/04/17 05:54:00;;;;;;;5.18;2.60;;;12.30;57.40;;;;;;4996501;28;20015;-56
2022/04/17 05:56:27;;;;;;;5.40;3.00;;;12.30;57.20;;;;;;4996457;28;20033;-61
2022/04/17 05:58:53;;;;;;;5.30;3.05;;;12.30;57.20;;;;;;4996262;28;20019;-59
2022/04/17 06:01:18;;;;;;;5.72;3.05;;;12.30;57.60;;;;;;4995929;28;20029;-60
2022/04/17 06:03:44;;;;;;;4.50;2.85;;;12.40;57.60;;;;;;4996164;28;20085;-60
2022/04/17 06:06:10;;;;;;;4.68;3.03;;;12.50;57.40;;;;;;4996382;28;20427;-61
2022/04/17 06:08:36;;;;;;;4.53;2.90;;;12.50;57.30;;;;;;4996227;28;20468;-61
2022/04/17 06:11:01;;;;;;;4.22;3.33;;;12.50;56.90;;;;;;4996110;28;20023;-58
2022/04/17 06:13:27;;;;;;;7.40;2.90;;;12.60;56.80;;;;;;4995374;28;20452;-61
2022/04/17 06:15:53;;;;;;;4.10;3.13;;;12.60;56.80;;;;;;4996112;28;20056;-61
2022/04/17 06:18:18;;;;;;;3.35;2.67;;;12.60;56.80;;;;;;4996339;28;20068;-61
2022/04/17 06:20:44;;;;;;;8.52;3.80;;;12.70;56.90;;;;;;4995936;28;20035;-62
2022/04/17 06:23:09;;;;;;;3.67;3.05;;;12.80;56.70;;;;;;4995770;28;20030;-62
2022/04/17 06:25:35;;;;;;;4.22;2.67;;;12.80;56.70;;;;;;4995263;28;20062;-62
2022/04/17 06:28:00;;;;;;;5.00;3.50;;;12.90;56.70;;;;;;4995725;28;20365;-62
2022/04/17 06:30:27;;;;;;;4.63;3.17;;;12.90;56.70;;;;;;4995782;28;20038;-54
2022/04/17 06:32:53;;;;;;;5.70;3.10;;;12.90;56.60;;;;;;4995688;28;20102;-62
2022/04/17 06:35:19;;;;;;;3.88;3.42;;;13.00;56.60;;;;;;4995333;28;20110;-62
2022/04/17 06:37:59;;;;;;;4.75;3.10;;;13.00;56.80;;;;;;4995764;28;20028;-61
2022/04/17 06:40:27;;;;;;;3.83;3.08;;;13.10;56.30;;;;;;4995062;28;20046;-57
2022/04/17 06:42:55;;;;;;;4.72;3.17;;;13.20;56.30;;;;;;4995336;28;20034;-62
2022/04/17 06:45:22;;;;;;;4.63;3.88;;;13.30;55.70;;;;;;4990203;28;20026;-62
2022/04/17 06:47:48;;;;;;;4.95;3.72;;;13.30;56.10;;;;;;4982904;28;20030;-62
2022/04/17 06:50:16;;;;;;;6.47;4.30;;;13.40;56.10;;;;;;4987232;28;20030;-58
2022/04/17 06:52:41;;;;;;;4.85;4.05;;;13.50;55.90;;;;;;4988318;28;20030;-53
2022/04/17 06:55:11;;;;;;;3.88;3.25;;;13.50;56.00;;;;;;4985596;28;20026;-63
2022/04/17 06:57:39;;;;;;;4.10;3.30;;;13.50;55.50;;;;;;4983636;28;20030;-58
2022/04/17 07:00:07;;;;;;;4.15;3.05;;;13.60;55.70;;;;;;4994416;28;20025;-64
2022/04/17 07:02:32;;;;;;;6.03;3.28;;;13.70;55.20;;;;;;4986744;28;20050;-63
2022/04/17 07:04:58;;;;;;;4.80;3.45;;;13.80;55.00;;;;;;4985956;28;20117;-63
2022/04/17 07:07:23;;;;;;;4.20;3.28;;;13.80;55.20;;;;;;4986740;28;20022;-61
2022/04/17 07:09:49;;;;;;;3.25;2.85;;;13.90;55.20;;;;;;4985404;28;20491;-61
2022/04/17 07:12:16;;;;;;;4.70;2.90;;;13.90;55.20;;;;;;4981324;28;20030;-65
2022/04/17 07:14:41;;;;;;;5.30;2.55;;;14.00;55.10;;;;;;4982996;28;20030;-65
2022/04/17 07:17:07;;;;;;;5.20;2.75;;;14.00;55.00;;;;;;4982745;28;20037;-60
2022/04/17 07:19:32;;;;;;;4.88;2.60;;;14.10;54.90;;;;;;4986070;28;20034;-58
2022/04/17 07:21:58;;;;;;;2.95;2.45;;;14.20;54.90;;;;;;4985406;28;20086;-56
2022/04/17 07:24:24;;;;;;;4.43;2.55;;;14.20;54.40;;;;;;4982432;28;20027;-63
2022/04/17 07:26:53;;;;;;;3.15;2.78;;;14.30;54.40;;;;;;4982403;28;20038;-61
2022/04/17 07:29:22;;;;;;;5.53;2.72;;;14.40;54.70;;;;;;4983073;28;20022;-60
2022/04/17 07:31:51;;;;;;;4.53;2.80;;;14.40;54.60;;;;;;4983542;28;20022;-64
2022/04/17 07:34:20;;;;;;;5.55;2.47;;;14.50;54.50;;;;;;4981844;28;20473;-64
2022/04/17 07:36:54;;;;;;;5.15;2.03;;;14.50;54.70;;;;;;4984552;28;20113;-67
2022/04/17 07:39:19;;;;;;;4.93;2.53;;;14.60;54.30;;;;;;4985066;28;20050;-61
2022/04/17 07:41:48;;;;;;;5.85;2.10;;;14.60;54.00;;;;;;4973513;28;20061;-65
2022/04/17 07:44:14;;;;;;;7.15;1.67;;;14.70;56.90;;;;;;4994170;28;20026;-63
2022/04/17 07:46:41;;;;;;;8.77;2.80;;;14.70;57.90;;;;;;4989384;28;20042;-64
2022/04/17 07:49:07;;;;;;;11.35;2.38;;;14.80;57.70;;;;;;4993334;28;20026;-63
2022/04/17 07:51:33;;;;;;;10.77;2.50;;;14.90;57.50;;;;;;4989628;28;20529;-64
2022/04/17 07:53:59;;;;;;;5.60;2.10;;;15.00;58.90;;;;;;4984105;28;20476;-63
2022/04/17 07:56:24;;;;;;;4.65;2.28;;;15.10;53.90;;;;;;4981247;28;20067;-60
2022/04/17 07:58:50;;;;;;;5.00;2.08;;;15.20;52.80;;;;;;4993574;28;20019;-57
2022/04/17 08:01:16;;;;;;;3.30;1.70;;;15.20;54.80;;;;;;4992363;28;20081;-65
2022/04/17 08:06:12;;;;;;;9.18;2.20;;;15.40;57.70;;;;;;4993426;28;20049;-63
2022/04/17 08:08:39;;;;;;;4.10;1.63;;;15.50;57.50;;;;;;4993383;28;20014;-64
2022/04/17 08:11:06;;;;;;;3.47;1.67;;;15.50;55.10;;;;;;4993737;28;20034;-61
2022/04/17 08:13:32;;;;;;;6.25;2.25;;;15.60;52.70;;;;;;4993192;28;20022;-64
2022/04/17 08:15:59;;;;;;;9.48;2.10;;;15.60;52.30;;;;;;4989064;28;20038;-63
2022/04/17 08:18:25;;;;;;;5.80;2.20;;;15.70;54.40;;;;;;4989865;28;20121;-60
2022/04/17 08:20:50;;;;;;;4.75;2.30;;;15.80;51.80;;;;;;4984687;28;20133;-57
2022/04/17 08:23:16;;;;;;;2.80;1.50;;;15.80;52.00;;;;;;4979813;28;20456;-55
2022/04/17 08:25:42;;;;;;;2.92;1.98;;;15.80;54.50;;;;;;4984956;28;20037;-55
2022/04/17 08:28:08;;;;;;;5.53;2.20;;;15.90;51.60;;;;;;4980292;28;20033;-53
2022/04/17 08:30:35;;;;;;;5.60;1.85;;;15.90;51.90;;;;;;4981061;28;20080;-56
2022/04/17 08:33:04;;;;;;;11.85;1.40;;;16.00;53.10;;;;;;4982370;28;20038;-53
2022/04/17 08:35:30;;;;;;;2.40;1.30;;;16.10;54.00;;;;;;4960150;28;20161;-61
2022/04/17 08:38:01;;;;;;;4.25;1.60;;;16.10;53.90;;;;;;4982890;28;20081;-57
2022/04/17 08:40:28;;;;;;;5.47;1.75;;;16.10;51.80;;;;;;4984549;28;20038;-54
2022/04/17 08:42:55;;;;;;;2.28;2.00;;;16.20;51.20;;;;;;4984298;28;20085;-58
2022/04/17 08:45:22;;;;;;;3.13;1.80;;;16.20;49.90;;;;;;4981919;28;20042;-62
2022/04/17 08:47:48;;;;;;;5.00;2.03;;;16.20;51.10;;;;;;4984861;28;20035;-61
2022/04/17 08:50:19;;;;;;;6.85;2.00;;;16.30;50.60;;;;;;4982373;28;20031;-57
2022/04/17 08:52:47;;;;;;;3.95;2.17;;;16.30;50.40;;;;;;4985121;28;20499;-57
2022/04/17 08:55:13;;;;;;;2.38;1.90;;;16.40;50.60;;;;;;4987036;28;20057;-56
2022/04/17 08:57:39;;;;;;;3.70;2.00;;;16.30;52.40;;;;;;4983597;28;20026;-60
2022/04/17 09:00:08;;;;;;;5.00;1.90;;;16.40;50.60;;;;;;4978880;28;20026;-60
2022/04/17 09:02:34;;;;;;;3.70;2.10;;;16.40;50.70;;;;;;4984783;28;20030;-62
2022/04/17 09:05:04;;;;;;;5.88;2.10;;;16.40;51.00;;;;;;4987593;28;20046;-61
2022/04/17 09:07:51;;;;;;;3.53;1.90;;;16.40;51.60;;;;;;4988947;28;20393;-60
2022/04/17 09:10:30;;;;;;;3.20;1.92;;;16.50;53.10;;;;;;4987715;28;20063;-59
2022/04/17 09:12:59;;;;;;;3.67;2.45;;;16.50;50.70;;;;;;4986314;28;20060;-57
2022/04/17 09:15:46;;;;;;;5.38;2.22;;;16.50;49.80;;;;;;4987332;28;20030;-61
2022/04/17 09:18:14;;;;;;;3.85;2.17;;;16.50;49.20;;;;;;4984928;28;20058;-59
2022/04/17 09:20:46;;;;;;;3.17;2.20;;;16.50;49.40;;;;;;4967610;28;20541;-63
2022/04/17 09:23:11;;;;;;;3.47;2.35;;;16.50;49.30;;;;;;4984524;28;20026;-60
2022/04/17 09:25:37;;;;;;;2.95;2.25;;;16.50;49.80;;;;;;4984311;28;20053;-60
2022/04/17 09:28:05;;;;;;;3.97;1.95;;;16.50;49.90;;;;;;4985551;28;20660;-63
2022/04/17 09:30:46;;;;;;;2.92;2.45;;;16.60;50.70;;;;;;4984416;28;20392;-56
2022/04/17 09:33:13;;;;;;;2.80;2.42;;;16.60;49.80;;;;;;4987856;28;20491;-55
2022/04/17 09:35:39;;;;;;;4.68;2.60;;;16.60;49.70;;;;;;4992847;28;20068;-62
2022/04/17 09:38:07;;;;;;;2.90;2.33;;;16.60;50.30;;;;;;4983589;28;20023;-58
2022/04/17 09:40:33;;;;;;;3.75;2.70;;;16.60;49.60;;;;;;4982860;28;20424;-60
2022/04/17 09:43:15;;;;;;;4.15;2.70;;;16.70;49.30;;;;;;4982563;28;20510;-57
2022/04/17 09:46:00;;;;;;;5.28;3.17;;;16.70;49.30;;;;;;4984214;28;20046;-62
2022/04/17 09:48:39;;;;;;;3.25;2.45;;;16.70;49.60;;;;;;4986266;28;20030;-57
2022/04/17 09:51:24;;;;;;;5.88;2.97;;;16.70;49.90;;;;;;4988817;28;20055;-61
2022/04/17 09:54:05;;;;;;;2.92;2.63;;;16.70;50.20;;;;;;4985659;28;20033;-56
2022/04/17 09:56:39;;;;;;;5.53;2.45;;;16.70;50.00;;;;;;4989391;28;20042;-58
2022/04/17 09:59:17;;;;;;;3.45;2.30;;;16.70;49.40;;;;;;4987000;28;20023;-64
2022/04/17 10:01:49;;;;;;;4.63;2.28;;;16.60;49.60;;;;;;4992233;28;20462;-58
2022/04/17 10:04:21;;;;;;;2.58;2.08;;;16.70;49.20;;;;;;4984856;28;20026;-58
2022/04/17 10:06:47;;;;;;;;;;;16.80;48.90;;;;;;4987699;28;20122;-57
2022/04/17 10:09:13;;;;;;;3.40;2.53;;;16.70;51.50;;;;;;4971763;28;20005;-61
2022/04/17 10:11:40;;;;;;;3.55;2.40;;;16.70;49.60;;;;;;4988573;28;20026;-54
2022/04/17 10:14:06;;;;;;;4.10;1.98;;;16.80;50.60;;;;;;4989606;28;20029;-55
2022/04/17 10:16:33;;;;;;;2.97;2.38;;;16.80;48.90;;;;;;4989422;28;20586;-56
2022/04/17 10:19:07;;;;;;;4.05;2.40;;;16.80;47.60;;;;;;4986217;28;20184;-57
2022/04/17 10:21:36;;;;;;;2.83;2.55;;;16.70;46.70;;;;;;4991587;28;20522;-63
2022/04/17 10:24:04;;;;;;;2.95;2.05;;;16.70;47.60;;;;;;4989474;28;20029;-65
2022/04/17 10:26:34;;;;;;;3.05;2.30;;;16.70;49.60;;;;;;4986260;28;20034;-63
2022/04/17 10:29:04;;;;;;;2.92;2.20;;;16.70;49.50;;;;;;4991066;28;20482;-64
2022/04/17 10:32:00;;;;;;;4.95;3.25;;;16.80;49.60;;;;;;4986804;28;20026;-54
2022/04/17 10:34:50;;;;;;;3.08;2.58;;;16.80;49.20;;;;;;4970364;28;20462;-55
2022/04/17 10:37:47;;;;;;;3.58;2.83;;;16.80;49.20;;;;;;4980773;28;20015;-56
2022/04/17 10:40:13;;;;;;;3.83;2.85;;;16.80;49.90;;;;;;4984010;28;20037;-63
2022/04/17 10:42:57;;;;;;;4.18;2.67;;;16.80;50.20;;;;;;4986577;28;20027;-59
2022/04/17 10:45:23;;;;;;;3.15;2.83;;;16.90;51.10;;;;;;4982351;28;20045;-65
2022/04/17 10:48:10;;;;;;;4.65;2.55;;;16.90;49.80;;;;;;4981338;28;20468;-64
2022/04/17 10:50:42;;;;;;;5.20;2.85;;;16.90;49.80;;;;;;4980484;28;20026;-59
2022/04/17 10:53:27;;;;;;;;;;;16.90;49.50;;;;;;4985091;28;20026;-56
2022/04/17 10:56:15;;;;;;;5.65;3.05;;;16.80;51.10;;;;;;4981909;28;20011;-54
2022/04/17 10:58:55;;;;;;;4.90;2.65;;;16.90;49.80;;;;;;4981910;28;20038;-62
2022/04/17 11:01:42;;;;;;;7.25;3.03;;;16.80;50.20;;;;;;4985263;28;20042;-64
2022/04/17 11:04:27;;;;;;;2.53;2.20;;;16.80;51.10;;;;;;4983267;28;20106;-64
2022/04/17 11:07:05;;;;;;;4.15;2.67;;;16.90;50.10;;;;;;4979607;28;20042;-61
2022/04/17 11:09:36;;;;;;;4.07;2.30;;;16.90;49.20;;;;;;4981640;28;20034;-62
2022/04/17 11:12:28;;;;;;;2.33;2.13;;;16.90;48.80;;;;;;4986586;28;20034;-64
2022/04/17 11:15:02;;;;;;;4.90;2.35;;;16.90;48.60;;;;;;4988110;28;20113;-53
2022/04/17 11:17:29;;;;;;;3.47;2.53;;;16.90;48.80;;;;;;4982208;28;20030;-62
2022/04/17 11:19:56;;;;;;;2.90;2.58;;;16.90;49.80;;;;;;4983449;28;20515;-53
2022/04/17 11:22:27;;;;;;;2.92;2.55;;;17.00;50.50;;;;;;4983532;28;20081;-55
2022/04/17 11:24:55;;;;;;;2.88;2.58;;;17.00;49.50;;;;;;4983532;28;20026;-63
2022/04/17 11:27:51;;;;;;;3.78;2.60;;;17.10;49.20;;;;;;4981613;28;20089;-63
2022/04/17 11:30:19;;;;;;;4.13;2.78;;;17.00;50.30;;;;;;4964107;28;20045;-60
2022/04/17 11:32:47;;;;;;;3.10;1.80;;;17.10;49.70;;;;;;4980041;28;20030;-55
2022/04/17 11:35:25;;;;;;;3.03;1.90;;;17.10;52.30;;;;;;4990974;28;20027;-58
2022/04/17 11:37:56;;;;;;;3.38;2.20;;;17.10;51.40;;;;;;4989343;28;20553;-61
2022/04/17 11:40:23;;;;;;;4.30;3.33;;;17.20;50.40;;;;;;4980265;28;20042;-64
2022/04/17 11:42:51;;;;;;;3.60;3.00;;;17.20;48.90;;;;;;4986159;28;20023;-56
2022/04/17 11:45:25;;;;;;;3.45;3.08;;;17.20;48.70;;;;;;4989080;28;20476;-57
2022/04/17 11:47:53;;;;;;;4.20;3.30;;;17.20;48.90;;;;;;4983466;28;20042;-63
2022/04/17 11:50:27;;;;;;;3.92;2.08;;;17.10;49.00;;;;;;4981835;28;20384;-54
2022/04/17 11:52:58;;;;;;;2.28;2.03;;;17.20;52.40;;;;;;4981453;28;20033;-61
2022/04/17 11:55:25;;;;;;;3.35;2.95;;;17.20;52.50;;;;;;4985662;28;20018;-62
2022/04/17 11:57:51;;;;;;;2.33;2.10;;;17.30;48.50;;;;;;4988025;28;20022;-61
2022/04/17 12:00:17;;;;;;;3.58;2.65;;;17.20;45.30;;;;;;4989299;28;20049;-55
2022/04/17 12:02:42;;;;;;;4.40;2.40;;;17.20;46.10;;;;;;4986054;28;20030;-60
2022/04/17 12:05:10;;;;;;;3.72;2.95;;;17.30;49.00;;;;;;4986630;28;20085;-64
2022/04/17 12:07:36;;;;;;;3.08;2.28;;;17.20;45.70;;;;;;4984710;28;20026;-64
2022/04/17 12:10:12;;;;;;;2.95;2.65;;;17.20;46.30;;;;;;4986560;28;20186;-53
2022/04/17 12:12:42;;;;;;;3.95;2.70;;;17.20;47.00;;;;;;4984018;28;20136;-57
2022/04/17 12:15:18;;;;;;;2.58;1.73;;;17.20;46.80;;;;;;4984721;28;20026;-61
2022/04/17 12:17:44;;;;;;;2.95;2.67;;;17.30;49.80;;;;;;4986278;28;20026;-60
2022/04/17 12:20:15;;;;;;;4.13;2.70;;;17.30;47.40;;;;;;4984972;28;20496;-58
2022/04/17 12:22:42;;;;;;;4.95;1.67;;;17.30;47.00;;;;;;4980464;28;20026;-63
2022/04/17 12:25:17;;;;;;;2.90;2.50;;;17.30;51.30;;;;;;4981821;28;20079;-52
2022/04/17 12:27:45;;;;;;;4.30;2.65;;;17.40;47.70;;;;;;4986631;28;20181;-58
2022/04/17 12:30:11;;;;;;;2.80;2.55;;;17.40;46.30;;;;;;4990287;28;20018;-62
2022/04/17 12:32:46;;;;;;;3.35;2.53;;;17.40;46.00;;;;;;4986650;28;20400;-53
2022/04/17 12:35:20;;;;;;;3.05;2.30;;;17.40;46.60;;;;;;4988961;28;20439;-63
2022/04/17 12:37:45;;;;;;;2.78;2.17;;;17.30;46.60;;;;;;4980214;28;20022;-54
2022/04/17 12:40:13;;;;;;;2.50;2.30;;;17.30;46.70;;;;;;4988618;28;20033;-54
2022/04/17 12:42:40;;;;;;;3.42;2.15;;;17.30;45.50;;;;;;4987896;28;20085;-65
2022/04/17 12:45:08;;;;;;;3.33;2.30;;;17.40;44.90;;;;;;4988313;28;20022;-59
2022/04/17 12:47:36;;;;;;;2.88;2.08;;;17.40;43.30;;;;;;4987934;28;20033;-63
2022/04/17 12:50:09;;;;;;;2.03;1.80;;;17.40;42.90;;;;;;4978475;28;20031;-61
2022/04/17 12:52:35;;;;;;;3.13;1.70;;;17.40;42.30;;;;;;4985922;28;20023;-57
2022/04/17 12:55:12;;;;;;;2.40;2.20;;;17.40;42.90;;;;;;4990286;28;20040;-57
2022/04/17 12:57:38;;;;;;;7.47;2.53;;;17.40;42.90;;;;;;4986870;28;20117;-65
2022/04/17 13:00:27;;;;;;;2.50;2.08;;;17.40;43.40;;;;;;4984001;28;20022;-53
2022/04/17 13:03:12;;;;;;;3.15;2.25;;;17.40;44.00;;;;;;4984853;28;20109;-52
2022/04/17 13:05:38;;;;;;;3.38;2.40;;;17.40;43.80;;;;;;4987776;28;20035;-65
2022/04/17 13:08:08;;;;;;;2.55;2.15;;;17.50;44.70;;;;;;4986677;28;20035;-66
2022/04/17 13:10:34;;;;;;;3.72;2.13;;;17.50;44.40;;;;;;4989226;28;20030;-54
2022/04/17 13:13:00;;;;;;;4.30;1.85;;;17.50;44.10;;;;;;4989891;28;20022;-55